Time;durP1;ratioP1;P1;durP2;ratioP2;P2;SDS_P1;SDS_P2;PMS_P1;PMS_P2;Temp;Humidity;BMP_temperature;BMP_pressure;BME280_temperature;BME280_humidity;BME280_pressure;Samples;Min_cycle;Max_cycle;Signal;HPM_P1;HPM_P2
2023/12/09 00:01:02;;;;;;;;;18.00;12.00;;;;;;;;5078693;28;47206;-79
2023/12/09 00:03:27;;;;;;;;;13.33;12.00;;;;;;;;5091245;27;47203;-79
2023/12/09 00:05:52;;;;;;;;;16.00;15.33;;;;;;;;5079852;28;45492;-79
2023/12/09 00:08:17;;;;;;;;;15.67;14.00;;;;;;;;5079034;28;45362;-80
2023/12/09 00:10:42;;;;;;;;;18.67;12.33;;;;;;;;5078953;28;45548;-79
2023/12/09 00:13:08;;;;;;;;;15.00;14.00;;;;;;;;5078188;28;47104;-79
2023/12/09 00:15:33;;;;;;;;;15.00;15.00;;;;;;;;5079830;28;45336;-79
2023/12/09 00:17:59;;;;;;;;;16.33;15.67;;;;;;;;5080313;28;45448;-79
2023/12/09 00:20:24;;;;;;;;;14.33;13.00;;;;;;;;5079650;28;45303;-79
2023/12/09 00:22:49;;;;;;;;;16.00;15.67;;;;;;;;5079410;28;46748;-79
2023/12/09 00:25:14;;;;;;;;;15.00;14.67;;;;;;;;5078718;28;45980;-79
2023/12/09 00:27:40;;;;;;;;;15.67;15.67;;;;;;;;5079883;28;45611;-79
2023/12/09 00:30:06;;;;;;;;;12.00;11.33;;;;;;;;5079843;28;45573;-79
2023/12/09 00:32:31;;;;;;;;;12.67;11.33;;;;;;;;5061128;28;48521;-79
2023/12/09 00:34:56;;;;;;;;;15.00;15.00;;;;;;;;5079480;28;45313;-79
2023/12/09 00:37:21;;;;;;;;;17.33;17.00;;;;;;;;5078235;28;45324;-79
2023/12/09 00:39:47;;;;;;;;;15.00;14.00;;;;;;;;5079667;28;45312;-79
2023/12/09 00:42:12;;;;;;;;;16.33;14.33;;;;;;;;5078133;28;48165;-79
2023/12/09 00:44:37;;;;;;;;;16.33;15.67;;;;;;;;5079538;28;45244;-79
2023/12/09 00:47:02;;;;;;;;;16.50;13.00;;;;;;;;5079841;28;45550;-79
2023/12/09 00:49:27;;;;;;;;;18.33;15.00;;;;;;;;5078880;28;45446;-79
2023/12/09 00:51:53;;;;;;;;;13.00;12.33;;;;;;;;5079351;28;46527;-79
2023/12/09 00:54:18;;;;;;;;;18.33;16.33;;;;;;;;5079325;28;45305;-79
2023/12/09 00:56:43;;;;;;;;;18.00;15.00;;;;;;;;5079902;28;45509;-79
2023/12/09 00:59:08;;;;;;;;;12.00;12.00;;;;;;;;5083127;27;45281;-79
2023/12/09 01:01:33;;;;;;;;;17.67;15.67;;;;;;;;5098288;27;47441;-79
2023/12/09 01:03:59;;;;;;;;;18.33;14.67;;;;;;;;5082478;27;45261;-79
2023/12/09 01:06:25;;;;;;;;;17.33;16.00;;;;;;;;5082798;27;45443;-79
2023/12/09 01:08:50;;;;;;;;;15.67;13.00;;;;;;;;5098070;27;47119;-79
2023/12/09 01:11:15;;;;;;;;;14.67;14.67;;;;;;;;5081132;28;47033;-79
2023/12/09 01:13:40;;;;;;;;;14.00;14.00;;;;;;;;5082852;27;45416;-79
2023/12/09 01:16:07;;;;;;;;;12.75;12.75;;;;;;;;5083110;27;45592;-79
2023/12/09 01:18:32;;;;;;;;;14.00;13.00;;;;;;;;5082543;27;45493;-79
2023/12/09 01:20:58;;;;;;;;;13.00;13.00;;;;;;;;5082644;27;46701;-79
2023/12/09 01:23:23;;;;;;;;;16.00;13.67;;;;;;;;5097972;27;45274;-79
2023/12/09 01:25:48;;;;;;;;;13.33;12.33;;;;;;;;5089527;27;45339;-79
2023/12/09 01:28:13;;;;;;;;;17.67;15.33;;;;;;;;5082497;28;45286;-79
2023/12/09 01:30:38;;;;;;;;;10.00;10.00;;;;;;;;5080961;28;48447;-79
2023/12/09 01:33:03;;;;;;;;;13.00;12.00;;;;;;;;5082312;28;45247;-79
2023/12/09 01:35:29;;;;;;;;;15.00;14.33;;;;;;;;5082203;28;45424;-80
2023/12/09 01:37:54;;;;;;;;;15.00;13.67;;;;;;;;5082063;28;45583;-79
2023/12/09 01:40:19;;;;;;;;;14.67;13.33;;;;;;;;5082452;28;45334;-79
2023/12/09 01:42:44;;;;;;;;;18.00;14.00;;;;;;;;5080806;28;45331;-79
2023/12/09 01:45:10;;;;;;;;;15.33;15.33;;;;;;;;5080683;28;45485;-79
2023/12/09 01:47:35;;;;;;;;;19.33;16.33;;;;;;;;5081083;28;45363;-79
2023/12/09 01:50:02;;;;;;;;;15.00;15.00;;;;;;;;5062706;28;47494;-79
2023/12/09 01:52:28;;;;;;;;;15.00;15.00;;;;;;;;5081508;28;45291;-80
2023/12/09 01:54:53;;;;;;;;;13.00;11.00;;;;;;;;5063774;28;45326;-79
2023/12/09 01:57:18;;;;;;;;;20.33;18.67;;;;;;;;5081800;28;45374;-80
2023/12/09 01:59:44;;;;;;;;;17.67;17.67;;;;;;;;5081815;28;46255;-79
2023/12/09 02:02:09;;;;;;;;;17.00;15.00;;;;;;;;5082046;27;45292;-79
2023/12/09 02:04:34;;;;;;;;;15.67;14.67;;;;;;;;5081775;27;45259;-79
2023/12/09 02:06:59;;;;;;;;;12.67;12.33;;;;;;;;5081248;28;45341;-79
2023/12/09 02:09:24;;;;;;;;;17.33;15.33;;;;;;;;5080324;28;46201;-79
2023/12/09 02:11:54;;;;;;;;;16.33;16.33;;;;;;;;5081739;28;45292;-80
2023/12/09 02:14:21;;;;;;;;;17.00;15.67;;;;;;;;5081600;28;45308;-79
2023/12/09 02:16:52;;;;;;;;;19.33;18.67;;;;;;;;5081526;28;45234;-79
2023/12/09 02:19:17;;;;;;;;;15.33;13.33;;;;;;;;5081454;28;46661;-79
2023/12/09 02:21:55;;;;;;;;;18.33;17.00;;;;;;;;5063125;28;45334;-79
2023/12/09 02:24:20;;;;;;;;;21.67;18.00;;;;;;;;5081344;28;45147;-79
2023/12/09 02:26:45;;;;;;;;;16.00;14.00;;;;;;;;5063125;28;46084;-79
2023/12/09 02:29:11;;;;;;;;;16.67;15.00;;;;;;;;5080067;28;48091;-79
2023/12/09 02:31:38;;;;;;;;;15.67;15.67;;;;;;;;5063136;28;45272;-79
2023/12/09 02:34:05;;;;;;;;;16.00;11.67;;;;;;;;5062831;28;45388;-79
2023/12/09 02:36:31;;;;;;;;;18.67;15.67;;;;;;;;5080991;28;45719;-79
2023/12/09 02:38:57;;;;;;;;;18.33;13.33;;;;;;;;5080994;28;46132;-79
2023/12/09 02:41:22;;;;;;;;;19.67;17.00;;;;;;;;5063018;28;45394;-79
2023/12/09 02:43:47;;;;;;;;;14.67;14.33;;;;;;;;5062949;28;45417;-79
2023/12/09 02:46:13;;;;;;;;;14.00;14.00;;;;;;;;5081210;28;45522;-79
2023/12/09 02:48:39;;;;;;;;;17.33;17.33;;;;;;;;5062490;28;48264;-79
2023/12/09 02:51:04;;;;;;;;;15.33;12.67;;;;;;;;5062834;28;45307;-79
2023/12/09 02:53:29;;;;;;;;;13.00;13.00;;;;;;;;5081065;28;45327;-79
2023/12/09 02:55:54;;;;;;;;;13.00;11.33;;;;;;;;5081285;28;45476;-79
2023/12/09 02:58:20;;;;;;;;;14.33;12.67;;;;;;;;5080705;28;45351;-79
2023/12/09 03:00:45;;;;;;;;;12.00;12.00;;;;;;;;5080883;27;45349;-79
2023/12/09 03:03:10;;;;;;;;;10.33;10.33;;;;;;;;5096905;27;45375;-79
2023/12/09 03:05:35;;;;;;;;;12.00;11.00;;;;;;;;5080853;27;45425;-79
2023/12/09 03:08:00;;;;;;;;;10.67;7.00;;;;;;;;5080682;27;45344;-78
2023/12/09 03:10:25;;;;;;;;;13.00;13.00;;;;;;;;5080689;27;45341;-79
2023/12/09 03:12:51;;;;;;;;;10.67;7.33;;;;;;;;5081109;27;45252;-79
2023/12/09 03:15:16;;;;;;;;;13.00;8.33;;;;;;;;5096660;27;47438;-79
2023/12/09 03:17:42;;;;;;;;;14.00;11.00;;;;;;;;5080755;27;45438;-79
2023/12/09 03:20:10;;;;;;;;;14.33;12.00;;;;;;;;5080333;27;45333;-79
2023/12/09 03:22:36;;;;;;;;;13.67;10.33;;;;;;;;5080515;27;45321;-79
2023/12/09 03:25:01;;;;;;;;;7.67;7.67;;;;;;;;5080595;27;45643;-79
2023/12/09 03:27:26;;;;;;;;;11.33;8.67;;;;;;;;5080238;27;46409;-79
2023/12/09 03:29:51;;;;;;;;;7.67;6.00;;;;;;;;5079368;28;45312;-80
2023/12/09 03:32:17;;;;;;;;;11.67;11.33;;;;;;;;5080833;27;45227;-79
2023/12/09 03:34:45;;;;;;;;;9.00;6.67;;;;;;;;5095961;27;46076;-79
2023/12/09 03:37:10;;;;;;;;;9.33;7.67;;;;;;;;5095956;27;47227;-79
2023/12/09 03:39:35;;;;;;;;;8.00;7.33;;;;;;;;5080273;27;46502;-79
2023/12/09 03:42:00;;;;;;;;;9.67;8.33;;;;;;;;5080521;28;45341;-79
2023/12/09 03:44:26;;;;;;;;;9.33;7.00;;;;;;;;5080113;28;45334;-79
2023/12/09 03:46:51;;;;;;;;;11.00;8.00;;;;;;;;5079579;28;45351;-79
2023/12/09 03:49:16;;;;;;;;;7.67;7.67;;;;;;;;5079974;28;45250;-79
2023/12/09 03:51:41;;;;;;;;;12.33;10.00;;;;;;;;5080287;28;45315;-79
2023/12/09 03:54:06;;;;;;;;;6.33;6.33;;;;;;;;5080073;28;45450;-79
2023/12/09 03:56:32;;;;;;;;;6.00;6.00;;;;;;;;5080294;28;45430;-78
2023/12/09 03:58:57;;;;;;;;;10.33;9.67;;;;;;;;5080120;27;45275;-79
2023/12/09 04:01:24;;;;;;;;;6.67;6.67;;;;;;;;5080623;27;45322;-79
2023/12/09 04:03:49;;;;;;;;;6.67;6.67;;;;;;;;5079826;27;45240;-79
2023/12/09 04:06:15;;;;;;;;;5.67;5.67;;;;;;;;5095640;27;47914;-79
2023/12/09 04:08:40;;;;;;;;;5.33;5.00;;;;;;;;5079947;27;45216;-79
2023/12/09 04:11:05;;;;;;;;;6.00;5.00;;;;;;;;5080300;27;45518;-79
2023/12/09 04:13:30;;;;;;;;;6.67;4.67;;;;;;;;5079509;27;45420;-79
2023/12/09 04:15:56;;;;;;;;;5.00;4.00;;;;;;;;5080194;27;46317;-80
2023/12/09 04:18:21;;;;;;;;;5.33;3.00;;;;;;;;5079880;27;45336;-79
2023/12/09 04:20:46;;;;;;;;;5.25;4.25;;;;;;;;5095795;27;45403;-79
2023/12/09 04:23:11;;;;;;;;;3.00;3.00;;;;;;;;5095412;27;46013;-79
2023/12/09 04:25:36;;;;;;;;;3.67;3.33;;;;;;;;5079782;27;45316;-79
2023/12/09 04:28:01;;;;;;;;;7.00;5.00;;;;;;;;5095685;27;45700;-79
2023/12/09 04:30:27;;;;;;;;;5.67;5.33;;;;;;;;5079861;28;45231;-78
2023/12/09 04:32:52;;;;;;;;;6.00;2.67;;;;;;;;5083324;27;45310;-78
2023/12/09 04:35:17;;;;;;;;;4.75;4.75;;;;;;;;5098904;27;48432;-78
2023/12/09 04:37:43;;;;;;;;;6.00;6.00;;;;;;;;5082836;27;45428;-79
2023/12/09 04:40:12;;;;;;;;;4.00;3.00;;;;;;;;5065202;28;45431;-79
2023/12/09 04:42:40;;;;;;;;;4.00;3.00;;;;;;;;5064746;28;46167;-79
2023/12/09 04:45:06;;;;;;;;;5.33;5.33;;;;;;;;5081805;28;48479;-79
2023/12/09 04:47:31;;;;;;;;;5.00;5.00;;;;;;;;5063941;28;46086;-79
2023/12/09 04:49:56;;;;;;;;;5.33;4.00;;;;;;;;5083005;28;45412;-79
2023/12/09 04:52:22;;;;;;;;;4.00;4.00;;;;;;;;5082920;28;45290;-79
2023/12/09 04:54:47;;;;;;;;;7.33;5.00;;;;;;;;5081410;28;47298;-79
2023/12/09 04:57:12;;;;;;;;;4.00;4.00;;;;;;;;5067869;28;45898;-79
2023/12/09 04:59:38;;;;;;;;;5.67;5.67;;;;;;;;5083148;28;45327;-79
2023/12/09 05:02:03;;;;;;;;;3.67;3.67;;;;;;;;5082984;27;45470;-79
2023/12/09 05:04:28;;;;;;;;;5.00;4.67;;;;;;;;5082695;28;46331;-78
2023/12/09 05:06:53;;;;;;;;;5.67;5.67;;;;;;;;5082312;28;45294;-79
2023/12/09 05:09:19;;;;;;;;;4.67;4.67;;;;;;;;5082677;28;45424;-79
2023/12/09 05:11:44;;;;;;;;;5.00;4.00;;;;;;;;5082692;28;45444;-79
2023/12/09 05:14:09;;;;;;;;;5.00;5.00;;;;;;;;5082192;28;45405;-79
2023/12/09 05:16:34;;;;;;;;;4.67;4.67;;;;;;;;5064406;28;45818;-79
2023/12/09 05:19:00;;;;;;;;;5.67;4.00;;;;;;;;5082342;28;45283;-79
2023/12/09 05:21:25;;;;;;;;;5.00;3.33;;;;;;;;5064110;28;45987;-79
2023/12/09 05:23:50;;;;;;;;;5.00;5.00;;;;;;;;5080812;28;48115;-79
2023/12/09 05:26:22;;;;;;;;;3.67;3.00;;;;;;;;5064211;28;45275;-80
2023/12/09 05:28:47;;;;;;;;;5.00;3.67;;;;;;;;5082630;28;45484;-79
2023/12/09 05:31:13;;;;;;;;;3.00;3.00;;;;;;;;5063883;28;46184;-79
2023/12/09 05:33:39;;;;;;;;;5.00;3.33;;;;;;;;5081964;28;45268;-79
2023/12/09 05:36:04;;;;;;;;;5.33;3.67;;;;;;;;5082310;28;45390;-79
2023/12/09 05:38:29;;;;;;;;;3.00;3.00;;;;;;;;5082146;28;45387;-79
2023/12/09 05:40:55;;;;;;;;;5.33;4.67;;;;;;;;5063975;28;45872;-79
2023/12/09 05:43:20;;;;;;;;;6.00;5.00;;;;;;;;5063731;28;47029;-79
2023/12/09 05:45:45;;;;;;;;;5.67;4.67;;;;;;;;5082570;28;45308;-79
2023/12/09 05:48:10;;;;;;;;;3.33;3.33;;;;;;;;5063953;28;45283;-78
2023/12/09 05:50:35;;;;;;;;;6.67;5.00;;;;;;;;5063641;28;46359;-79
2023/12/09 05:53:00;;;;;;;;;4.00;4.00;;;;;;;;5082112;28;45322;-78
2023/12/09 05:55:26;;;;;;;;;4.67;4.67;;;;;;;;5081983;28;45286;-78
2023/12/09 05:57:51;;;;;;;;;4.67;4.67;;;;;;;;5072554;28;45179;-79
2023/12/09 06:00:16;;;;;;;;;5.67;5.67;;;;;;;;5082124;27;45546;-79
2023/12/09 06:02:41;;;;;;;;;11.33;5.67;;;;;;;;5097099;27;47341;-79
2023/12/09 06:05:06;;;;;;;;;4.00;4.00;;;;;;;;5080710;28;46066;-79
2023/12/09 06:07:32;;;;;;;;;6.00;5.00;;;;;;;;5081754;28;45233;-79
2023/12/09 06:09:57;;;;;;;;;8.00;6.00;;;;;;;;5097291;27;45970;-79
2023/12/09 06:12:22;;;;;;;;;4.00;4.00;;;;;;;;5081729;27;45288;-79
2023/12/09 06:14:47;;;;;;;;;5.00;4.67;;;;;;;;5081469;27;45287;-79
2023/12/09 06:17:12;;;;;;;;;4.00;4.00;;;;;;;;5081686;27;45212;-80
2023/12/09 06:19:38;;;;;;;;;7.33;4.67;;;;;;;;5081186;28;45362;-80
2023/12/09 06:22:03;;;;;;;;;5.67;5.00;;;;;;;;5078505;28;48349;-79
2023/12/09 06:24:28;;;;;;;;;5.33;4.67;;;;;;;;5079524;28;45356;-79
2023/12/09 06:26:53;;;;;;;;;4.00;4.00;;;;;;;;5081833;28;45178;-79
2023/12/09 06:29:18;;;;;;;;;4.00;4.00;;;;;;;;5081472;28;45235;-79
2023/12/09 06:31:43;;;;;;;;;4.67;3.67;;;;;;;;5063016;28;47462;-79
2023/12/09 06:34:09;;;;;;;;;4.33;4.33;;;;;;;;5081047;28;45294;-79
2023/12/09 06:36:34;;;;;;;;;5.00;3.67;;;;;;;;5080907;28;45383;-79
2023/12/09 06:38:59;;;;;;;;;5.00;3.75;;;;;;;;5079183;28;47024;-79
2023/12/09 06:41:24;;;;;;;;;3.00;3.00;;;;;;;;5080685;28;46404;-79
2023/12/09 06:43:49;;;;;;;;;3.00;3.00;;;;;;;;5080955;28;45303;-79
2023/12/09 06:46:14;;;;;;;;;5.00;3.00;;;;;;;;5080992;28;45222;-80
2023/12/09 06:48:40;;;;;;;;;2.00;2.00;;;;;;;;5062586;28;46008;-79
2023/12/09 06:51:07;;;;;;;;;3.00;3.00;;;;;;;;5079647;28;48556;-79
2023/12/09 06:53:32;;;;;;;;;2.33;2.00;;;;;;;;5080422;28;45481;-79
2023/12/09 06:55:57;;;;;;;;;3.00;2.00;;;;;;;;5081145;28;46021;-79
2023/12/09 06:58:22;;;;;;;;;4.33;4.00;;;;;;;;5081225;28;45465;-81
2023/12/09 07:00:48;;;;;;;;;3.67;3.00;;;;;;;;5080919;28;45524;-79
2023/12/09 07:03:13;;;;;;;;;2.00;2.00;;;;;;;;5080945;28;45386;-80
2023/12/09 07:05:38;;;;;;;;;4.67;4.67;;;;;;;;5079655;28;45320;-80
2023/12/09 07:08:03;;;;;;;;;4.75;4.00;;;;;;;;5079466;28;46114;-80
2023/12/09 07:10:29;;;;;;;;;5.00;4.00;;;;;;;;5080579;28;46323;-79
2023/12/09 07:12:54;;;;;;;;;3.00;3.00;;;;;;;;5080747;28;45479;-79
2023/12/09 07:15:20;;;;;;;;;5.00;3.67;;;;;;;;5080923;28;45295;-79
2023/12/09 07:17:45;;;;;;;;;5.00;3.00;;;;;;;;5080279;28;45441;-77
2023/12/09 07:20:10;;;;;;;;;2.67;2.67;;;;;;;;5080739;28;45420;-78
2023/12/09 07:22:35;;;;;;;;;3.00;3.00;;;;;;;;5079074;28;45842;-78
2023/12/09 07:25:01;;;;;;;;;3.67;2.00;;;;;;;;5064741;28;45331;-75
2023/12/09 07:27:26;;;;;;;;;3.33;3.00;;;;;;;;5079574;28;45483;-78
2023/12/09 07:29:52;;;;;;;;;1.67;1.33;;;;;;;;5078514;28;47201;-78
2023/12/09 07:32:17;;;;;;;;;3.00;3.00;;;;;;;;5078902;28;45174;-78
2023/12/09 07:34:42;;;;;;;;;2.33;2.33;;;;;;;;5079709;28;45536;-79
2023/12/09 07:37:09;;;;;;;;;4.33;4.00;;;;;;;;5078356;28;47335;-79
2023/12/09 07:39:35;;;;;;;;;2.67;2.67;;;;;;;;5079940;28;45299;-77
2023/12/09 07:42:00;;;;;;;;;2.00;2.00;;;;;;;;5078409;28;46128;-76
2023/12/09 07:44:25;;;;;;;;;5.33;3.00;;;;;;;;5079814;28;45501;-76
2023/12/09 07:46:50;;;;;;;;;2.33;2.33;;;;;;;;5078507;28;47272;-76
2023/12/09 07:49:16;;;;;;;;;2.00;2.00;;;;;;;;5079433;28;46082;-76
2023/12/09 07:51:41;;;;;;;;;2.00;2.00;;;;;;;;5079948;28;45261;-76
2023/12/09 07:54:06;;;;;;;;;2.00;2.00;;;;;;;;5078711;27;45442;-76
2023/12/09 07:56:31;;;;;;;;;2.00;2.00;;;;;;;;5095691;27;45483;-78
2023/12/09 07:58:57;;;;;;;;;3.00;1.00;;;;;;;;5078863;28;47076;-77
2023/12/09 08:01:22;;;;;;;;;2.33;2.00;;;;;;;;5079958;27;45336;-77
2023/12/09 08:03:47;;;;;;;;;2.00;2.00;;;;;;;;5094775;27;45630;-77
2023/12/09 08:06:12;;;;;;;;;2.00;2.00;;;;;;;;5078964;27;45452;-78
2023/12/09 08:08:38;;;;;;;;;1.00;1.00;;;;;;;;5095598;27;47178;-77
2023/12/09 08:11:03;;;;;;;;;1.00;1.00;;;;;;;;5095767;27;45273;-77
2023/12/09 08:13:28;;;;;;;;;3.00;3.00;;;;;;;;5079963;27;45449;-76
2023/12/09 08:15:54;;;;;;;;;12.67;12.67;;;;;;;;5080027;27;45424;-76
2023/12/09 08:18:19;;;;;;;;;3.00;3.00;;;;;;;;5079766;27;46330;-76
2023/12/09 08:20:44;;;;;;;;;1.67;1.67;;;;;;;;5079644;27;45219;-76
2023/12/09 08:23:09;;;;;;;;;4.00;2.67;;;;;;;;5077853;28;45532;-77
2023/12/09 08:25:34;;;;;;;;;3.33;3.33;;;;;;;;5078928;27;45308;-77
2023/12/09 08:28:00;;;;;;;;;3.00;2.00;;;;;;;;5079232;27;46286;-77
2023/12/09 08:30:25;;;;;;;;;5.33;3.00;;;;;;;;5078122;27;45637;-78
2023/12/09 08:48:14;;;;;;;;;1.00;1.00;;;;;;;;4960178;28;45929;-77
2023/12/09 08:50:39;;;;;;;;;1.00;1.00;;;;;;;;4970864;28;45477;-78
2023/12/09 08:53:04;;;;;;;;;1.67;1.67;;;;;;;;5038266;28;45390;-76
2023/12/09 08:59:16;;;;;;;;;2.33;2.33;;;;;;;;5016183;28;45835;-78
2023/12/09 09:17:40;;;;;;;;;;;;;;;;;;;;;
2023/12/09 09:20:33;;;;;;;;;1.00;1.00;;;;;;;;5020004;28;68513;-76
2023/12/09 09:45:05;;;;;;;;;0.33;0.33;;;;;;;;5054845;28;45284;-76
2023/12/09 09:47:36;;;;;;;;;2.00;1.00;;;;;;;;5059977;28;45438;-77
2023/12/09 09:50:02;;;;;;;;;1.00;1.00;;;;;;;;5075035;28;45372;-79
2023/12/09 09:52:28;;;;;;;;;1.00;1.00;;;;;;;;5080474;28;45335;-78
2023/12/09 09:54:53;;;;;;;;;1.00;1.00;;;;;;;;5062185;28;45370;-77
2023/12/09 09:57:20;;;;;;;;;1.33;0.33;;;;;;;;5080414;28;45147;-77
2023/12/09 09:59:46;;;;;;;;;0.00;0.00;;;;;;;;5080612;27;45359;-78
2023/12/09 10:02:12;;;;;;;;;0.00;0.00;;;;;;;;5081349;28;45272;-77
2023/12/09 10:04:37;;;;;;;;;1.00;1.00;;;;;;;;5079403;28;45458;-79
2023/12/09 10:07:03;;;;;;;;;0.00;0.00;;;;;;;;5080715;28;45659;-79
2023/12/09 10:09:28;;;;;;;;;0.00;0.00;;;;;;;;5080249;28;48410;-78
2023/12/09 10:11:53;;;;;;;;;1.00;1.00;;;;;;;;5062999;28;45736;-77
2023/12/09 10:14:19;;;;;;;;;0.00;0.00;;;;;;;;5062747;28;45398;-79
2023/12/09 10:16:45;;;;;;;;;0.00;0.00;;;;;;;;5063483;28;46496;-79
2023/12/09 10:19:12;;;;;;;;;1.00;0.00;;;;;;;;5081552;28;45380;-79
2023/12/09 10:21:37;;;;;;;;;0.00;0.00;;;;;;;;5081505;28;45221;-78
2023/12/09 10:24:03;;;;;;;;;0.00;0.00;;;;;;;;5080984;28;45429;-79
2023/12/09 10:26:28;;;;;;;;;0.67;0.67;;;;;;;;5062633;28;47089;-78
2023/12/09 10:28:54;;;;;;;;;0.00;0.00;;;;;;;;5080176;28;45526;-79
2023/12/09 10:31:19;;;;;;;;;0.00;0.00;;;;;;;;5062775;28;45736;-79
2023/12/09 10:33:44;;;;;;;;;0.33;0.33;;;;;;;;5079434;28;45319;-79
2023/12/09 10:36:10;;;;;;;;;1.33;1.33;;;;;;;;5080681;28;45395;-78
2023/12/09 10:38:40;;;;;;;;;2.00;2.00;;;;;;;;5062375;28;48144;-79
2023/12/09 10:41:05;;;;;;;;;1.00;1.00;;;;;;;;5062654;28;45960;-77
2023/12/09 10:43:31;;;;;;;;;0.00;0.00;;;;;;;;5080170;28;45293;-77
2023/12/09 10:45:58;;;;;;;;;11.00;9.00;;;;;;;;5083258;28;45473;-77
2023/12/09 10:48:23;;;;;;;;;9.33;9.00;;;;;;;;5080059;28;45321;-77
2023/12/09 10:50:48;;;;;;;;;0.00;0.00;;;;;;;;5079624;28;45261;-79
2023/12/09 10:53:13;;;;;;;;;0.00;0.00;;;;;;;;5081070;28;45291;-77
2023/12/09 10:55:39;;;;;;;;;0.00;0.00;;;;;;;;5080402;28;45408;-77
2023/12/09 10:58:04;;;;;;;;;1.67;1.67;;;;;;;;5090188;27;47313;-79
2023/12/09 11:00:30;;;;;;;;;1.33;0.00;;;;;;;;5081078;27;45259;-79
2023/12/09 11:02:56;;;;;;;;;0.00;0.00;;;;;;;;5085848;27;45411;-78
2023/12/09 11:05:21;;;;;;;;;1.00;1.00;;;;;;;;5078117;28;46630;-79
2023/12/09 11:07:47;;;;;;;;;2.00;1.00;;;;;;;;5062210;28;47341;-78
2023/12/09 11:10:12;;;;;;;;;1.00;1.00;;;;;;;;5079446;28;45368;-80
2023/12/09 11:12:38;;;;;;;;;0.33;0.33;;;;;;;;5080814;28;45434;-79
2023/12/09 11:15:16;;;;;;;;;0.33;0.33;;;;;;;;5080803;28;45286;-79
2023/12/09 11:17:44;;;;;;;;;0.00;0.00;;;;;;;;5079549;28;48458;-78
2023/12/09 11:20:10;;;;;;;;;1.00;1.00;;;;;;;;5080743;28;45287;-77
2023/12/09 11:22:40;;;;;;;;;0.00;0.00;;;;;;;;5062422;28;45296;-79
2023/12/09 11:25:05;;;;;;;;;0.67;0.67;;;;;;;;5080556;28;45572;-78
2023/12/09 11:27:32;;;;;;;;;0.67;0.00;;;;;;;;5080090;28;47694;-78
2023/12/09 11:29:58;;;;;;;;;0.00;0.00;;;;;;;;5062064;28;45870;-78
2023/12/09 11:32:23;;;;;;;;;0.67;0.67;;;;;;;;5079207;28;45197;-81
2023/12/09 11:34:48;;;;;;;;;0.00;0.00;;;;;;;;5080231;28;45269;-79
2023/12/09 11:37:14;;;;;;;;;1.67;1.67;;;;;;;;5061793;28;47133;-78
2023/12/09 11:39:40;;;;;;;;;2.00;2.00;;;;;;;;5080390;28;45348;-79
2023/12/09 11:42:06;;;;;;;;;0.00;0.00;;;;;;;;5060758;28;45461;-81
2023/12/09 11:44:31;;;;;;;;;1.00;1.00;;;;;;;;5079291;28;46032;-79
2023/12/09 11:46:57;;;;;;;;;1.00;1.00;;;;;;;;5079863;28;45354;-80
2023/12/09 11:49:22;;;;;;;;;1.00;1.00;;;;;;;;5079724;28;45340;-78
2023/12/09 11:51:47;;;;;;;;;0.00;0.00;;;;;;;;5079433;28;45497;-78
2023/12/09 11:54:13;;;;;;;;;0.00;0.00;;;;;;;;5061365;28;47341;-77
2023/12/09 11:56:38;;;;;;;;;0.00;0.00;;;;;;;;5080056;28;45571;-78
2023/12/09 11:59:05;;;;;;;;;1.00;1.00;;;;;;;;5080251;27;45275;-78
2023/12/09 12:01:31;;;;;;;;;1.00;1.00;;;;;;;;5095926;27;45349;-80
2023/12/09 12:03:57;;;;;;;;;1.00;1.00;;;;;;;;5079825;27;45539;-83
2023/12/09 12:06:23;;;;;;;;;1.00;1.00;;;;;;;;5078389;27;48094;-81
2023/12/09 12:08:49;;;;;;;;;1.00;1.00;;;;;;;;5079074;28;45291;-81
2023/12/09 12:11:18;;;;;;;;;3.33;2.33;;;;;;;;5068154;28;45443;-80
2023/12/09 12:13:43;;;;;;;;;1.00;1.00;;;;;;;;5078485;28;45772;-79
2023/12/09 12:16:09;;;;;;;;;0.67;0.67;;;;;;;;5059823;28;48288;-80
2023/12/09 12:18:35;;;;;;;;;0.33;0.33;;;;;;;;5078933;28;45385;-78
2023/12/09 12:21:00;;;;;;;;;1.00;0.00;;;;;;;;5079339;28;45501;-78
2023/12/09 12:23:25;;;;;;;;;0.00;0.00;;;;;;;;5077667;28;47378;-77
2023/12/09 12:25:54;;;;;;;;;0.67;0.67;;;;;;;;5060939;28;47188;-78
2023/12/09 12:28:20;;;;;;;;;1.00;1.00;;;;;;;;5060995;28;45228;-78
2023/12/09 12:30:45;;;;;;;;;1.00;1.00;;;;;;;;5060763;28;45239;-78
2023/12/09 12:33:11;;;;;;;;;0.00;0.00;;;;;;;;5079144;28;45405;-80
2023/12/09 12:35:36;;;;;;;;;1.00;1.00;;;;;;;;5078796;28;45430;-80
2023/12/09 12:38:02;;;;;;;;;0.00;0.00;;;;;;;;5078089;28;45480;-79
2023/12/09 12:40:27;;;;;;;;;0.00;0.00;;;;;;;;5078491;28;45440;-78
2023/12/09 12:42:53;;;;;;;;;1.33;1.00;;;;;;;;5058808;28;45875;-79
2023/12/09 12:45:19;;;;;;;;;1.00;1.00;;;;;;;;5078557;28;45560;-77
2023/12/09 12:47:45;;;;;;;;;0.00;0.00;;;;;;;;5079299;28;45474;-79
2023/12/09 12:50:11;;;;;;;;;1.00;1.00;;;;;;;;5078931;28;45392;-78
2023/12/09 12:52:36;;;;;;;;;0.67;0.67;;;;;;;;5061976;28;46011;-80
2023/12/09 12:55:02;;;;;;;;;1.00;1.00;;;;;;;;5082289;28;45491;-80
2023/12/09 12:57:28;;;;;;;;;1.00;1.00;;;;;;;;5065259;28;45534;-79
2023/12/09 12:59:54;;;;;;;;;1.67;1.67;;;;;;;;5080829;28;45229;-79
2023/12/09 13:02:22;;;;;;;;;1.00;1.00;;;;;;;;5082335;28;45319;-77
2023/12/09 13:04:47;;;;;;;;;1.67;1.67;;;;;;;;5081815;28;45998;-79
2023/12/09 13:07:12;;;;;;;;;2.00;2.00;;;;;;;;5063228;28;45367;-78
2023/12/09 13:09:37;;;;;;;;;3.00;1.00;;;;;;;;5081530;28;45399;-79
2023/12/09 13:12:03;;;;;;;;;1.00;1.00;;;;;;;;5082814;28;45300;-78
2023/12/09 13:14:28;;;;;;;;;0.67;0.67;;;;;;;;5081072;28;47232;-77
2023/12/09 13:16:53;;;;;;;;;1.67;1.67;;;;;;;;5082645;28;45295;-77
2023/12/09 13:19:18;;;;;;;;;1.00;1.00;;;;;;;;5082886;28;45314;-78
2023/12/09 13:21:44;;;;;;;;;1.00;1.00;;;;;;;;5082364;28;45546;-78
2023/12/09 13:24:10;;;;;;;;;2.00;1.00;;;;;;;;5064051;28;48258;-78
2023/12/09 13:26:36;;;;;;;;;1.00;1.00;;;;;;;;5064311;28;45335;-78
2023/12/09 13:29:01;;;;;;;;;1.00;1.00;;;;;;;;5082808;28;45346;-79
2023/12/09 13:31:26;;;;;;;;;1.00;1.00;;;;;;;;5081197;28;46030;-78
2023/12/09 13:33:51;;;;;;;;;1.00;1.00;;;;;;;;5082226;28;46644;-79
2023/12/09 13:36:16;;;;;;;;;1.00;1.00;;;;;;;;5081067;28;45393;-77
2023/12/09 13:38:42;;;;;;;;;1.00;1.00;;;;;;;;5081048;28;45415;-79
2023/12/09 13:41:07;;;;;;;;;2.00;2.00;;;;;;;;5073127;28;45561;-77
2023/12/09 13:43:32;;;;;;;;;1.67;1.00;;;;;;;;5061276;28;46307;-79
2023/12/09 13:45:57;;;;;;;;;1.67;1.67;;;;;;;;5066288;28;45370;-78
2023/12/09 13:48:22;;;;;;;;;3.00;3.00;;;;;;;;5078890;28;45248;-78
2023/12/09 13:50:48;;;;;;;;;2.00;2.00;;;;;;;;5081159;27;46406;-76
2023/12/09 13:53:13;;;;;;;;;1.00;1.00;;;;;;;;5081612;27;45994;-78
2023/12/09 13:55:39;;;;;;;;;0.50;0.50;;;;;;;;5097604;27;45342;-77
2023/12/09 13:58:04;;;;;;;;;2.75;1.00;;;;;;;;5081814;27;45482;-77
2023/12/09 14:00:29;;;;;;;;;1.00;1.00;;;;;;;;5081977;28;45351;-76
2023/12/09 14:02:56;;;;;;;;;1.50;0.50;;;;;;;;5077258;28;47190;-78
2023/12/09 14:05:21;;;;;;;;;0.67;0.67;;;;;;;;5078922;27;45608;-75
2023/12/09 14:07:46;;;;;;;;;1.33;1.33;;;;;;;;5080243;28;45331;-79
2023/12/09 14:10:12;;;;;;;;;2.00;2.00;;;;;;;;5079817;27;46792;-77
2023/12/09 14:12:39;;;;;;;;;1.00;1.00;;;;;;;;5080653;28;45929;-77
2023/12/09 14:15:05;;;;;;;;;0.25;0.25;;;;;;;;5080623;28;45405;-78
2023/12/09 14:17:31;;;;;;;;;1.00;1.00;;;;;;;;5062782;28;45409;-78
2023/12/09 14:19:56;;;;;;;;;9.67;8.33;;;;;;;;5080313;28;45369;-78
2023/12/09 14:22:21;;;;;;;;;1.00;1.00;;;;;;;;5079283;28;45455;-77
2023/12/09 14:24:47;;;;;;;;;2.00;0.50;;;;;;;;5079485;28;45201;-77
2023/12/09 14:27:12;;;;;;;;;2.00;2.00;;;;;;;;5080237;28;45227;-77
2023/12/09 14:29:37;;;;;;;;;0.33;0.33;;;;;;;;5079786;28;45646;-76
2023/12/09 14:32:02;;;;;;;;;0.33;0.33;;;;;;;;5080868;28;46189;-79
2023/12/09 14:34:28;;;;;;;;;0.00;0.00;;;;;;;;5080728;28;45456;-77
2023/12/09 14:36:53;;;;;;;;;2.00;2.00;;;;;;;;5062822;28;45434;-75
2023/12/09 14:39:19;;;;;;;;;0.33;0.33;;;;;;;;5062773;28;46320;-78
2023/12/09 14:41:44;;;;;;;;;0.00;0.00;;;;;;;;5081054;28;45405;-78
2023/12/09 14:44:10;;;;;;;;;0.25;0.00;;;;;;;;5080837;28;45335;-78
2023/12/09 14:46:35;;;;;;;;;1.00;1.00;;;;;;;;5081427;28;45232;-76
2023/12/09 14:49:00;;;;;;;;;1.33;1.33;;;;;;;;5080754;28;45263;-78
2023/12/09 14:51:25;;;;;;;;;0.75;0.75;;;;;;;;5081002;28;45418;-78
2023/12/09 14:53:54;;;;;;;;;2.67;2.67;;;;;;;;5080588;27;45316;-79
2023/12/09 14:56:19;;;;;;;;;3.00;2.67;;;;;;;;5081081;28;45389;-78
2023/12/09 14:58:44;;;;;;;;;5.67;5.67;;;;;;;;5078000;28;47308;-77
2023/12/09 15:01:09;;;;;;;;;1.33;1.33;;;;;;;;5079669;28;46496;-75
2023/12/09 15:03:35;;;;;;;;;0.75;0.75;;;;;;;;5080858;27;45481;-75
2023/12/09 15:06:00;;;;;;;;;0.25;0.25;;;;;;;;5080816;28;45334;-76
2023/12/09 15:08:26;;;;;;;;;0.25;0.25;;;;;;;;5080646;27;45393;-76
2023/12/09 15:10:53;;;;;;;;;0.25;0.25;;;;;;;;5076927;28;45692;-77
2023/12/09 15:13:18;;;;;;;;;1.00;1.00;;;;;;;;5077636;28;45253;-78
2023/12/09 15:15:43;;;;;;;;;1.00;1.00;;;;;;;;5079781;28;45212;-76
2023/12/09 15:18:09;;;;;;;;;0.00;0.00;;;;;;;;5079223;28;45283;-77
2023/12/09 15:20:34;;;;;;;;;1.67;1.00;;;;;;;;5078128;28;45579;-78
2023/12/09 15:22:59;;;;;;;;;0.25;0.25;;;;;;;;5079932;28;45347;-78
2023/12/09 15:25:24;;;;;;;;;0.25;0.25;;;;;;;;5080730;28;45362;-78